createdAt,value
2023-03-21T00:01:52.960Z,36.40
2023-03-21T00:04:24.638Z,36.60
2023-03-21T00:06:53.188Z,34.60
2023-03-21T00:09:21.465Z,33.90
2023-03-21T00:11:53.066Z,34.20
2023-03-21T00:14:21.265Z,34.80
2023-03-21T00:16:51.049Z,36.20
2023-03-21T00:19:21.073Z,35.30
2023-03-21T00:22:08.838Z,36.30
2023-03-21T00:24:37.558Z,35.30
2023-03-21T00:27:30.324Z,35.80
2023-03-21T00:29:56.795Z,35.70
2023-03-21T00:32:28.279Z,35.30
2023-03-21T00:35:16.531Z,35.50
2023-03-21T00:37:49.014Z,35.40
2023-03-21T00:40:26.750Z,35.30
2023-03-21T00:42:59.192Z,34.80
2023-03-21T00:45:28.172Z,42.70
2023-03-21T00:47:56.593Z,37.30
2023-03-21T00:50:30.162Z,34.60
2023-03-21T00:52:58.653Z,34.40
2023-03-21T00:55:28.535Z,33.90
2023-03-21T00:58:02.064Z,35.50
2023-03-21T01:00:31.204Z,38.00
2023-03-21T01:03:17.539Z,37.70
2023-03-21T01:06:04.546Z,35.70
2023-03-21T01:08:48.609Z,36.70
2023-03-21T01:11:24.435Z,39.10
2023-03-21T01:13:59.601Z,39.00
2023-03-21T01:16:32.844Z,39.80
2023-03-21T01:19:02.106Z,41.90
2023-03-21T01:21:33.250Z,39.60
2023-03-21T01:24:01.918Z,38.90
2023-03-21T01:26:30.639Z,40.00
2023-03-21T01:28:58.728Z,44.30
2023-03-21T01:31:26.882Z,43.50
2023-03-21T01:33:55.113Z,46.80
2023-03-21T01:36:25.580Z,47.30
2023-03-21T01:38:58.504Z,42.90
2023-03-21T01:41:42.011Z,44.10
2023-03-21T01:44:18.811Z,39.30
2023-03-21T01:47:11.412Z,38.60
2023-03-21T01:50:02.640Z,38.60
2023-03-21T01:52:41.905Z,38.30
2023-03-21T01:55:18.687Z,38.20
2023-03-21T01:58:05.999Z,36.90
2023-03-21T02:00:56.858Z,38.40
2023-03-21T02:03:50.440Z,39.40
2023-03-21T02:06:49.162Z,38.20
2023-03-21T02:09:26.200Z,36.60
2023-03-21T02:11:58.220Z,39.00
2023-03-21T02:14:30.974Z,41.50
2023-03-21T02:17:27.925Z,39.40
2023-03-21T02:20:41.067Z,40.00
2023-03-21T02:23:14.730Z,38.70
2023-03-21T02:26:40.897Z,38.30
2023-03-21T02:29:49.415Z,40.80
2023-03-21T02:32:37.538Z,39.40
2023-03-21T02:35:37.115Z,39.70
2023-03-21T02:39:09.581Z,39.90
2023-03-21T02:41:49.194Z,39.50
2023-03-21T02:44:37.702Z,38.20
2023-03-21T02:47:13.584Z,39.70
2023-03-21T02:49:54.550Z,38.60
2023-03-21T02:52:37.733Z,39.40
2023-03-21T02:55:16.372Z,42.40
2023-03-21T02:57:51.002Z,39.60
2023-03-21T03:00:21.707Z,40.40
2023-03-21T03:02:54.563Z,39.80
2023-03-21T03:05:29.361Z,42.50
2023-03-21T03:08:24.000Z,42.30
2023-03-21T03:11:09.589Z,41.30
2023-03-21T03:13:52.782Z,39.50
2023-03-21T03:16:42.446Z,41.20
2023-03-21T03:19:18.321Z,40.90
2023-03-21T03:22:06.514Z,41.00
2023-03-21T03:24:55.350Z,42.20
2023-03-21T03:27:26.220Z,42.50
2023-03-21T03:29:54.573Z,42.50
2023-03-21T03:32:44.958Z,40.50
2023-03-21T03:35:17.656Z,41.70
2023-03-21T03:37:48.176Z,39.60
2023-03-21T03:40:17.474Z,42.20
2023-03-21T03:42:53.440Z,40.40
2023-03-21T03:45:40.036Z,40.10
2023-03-21T03:48:15.841Z,40.00
2023-03-21T03:51:11.006Z,42.50
2023-03-21T03:53:58.916Z,40.50
2023-03-21T03:56:30.000Z,41.40
2023-03-21T03:58:58.376Z,42.60
2023-03-21T04:01:41.549Z,42.30
2023-03-21T04:04:13.177Z,42.00
2023-03-21T04:06:45.622Z,40.50
2023-03-21T04:09:21.923Z,42.20
2023-03-21T04:11:53.338Z,41.50
2023-03-21T04:14:21.702Z,39.70
2023-03-21T04:16:50.584Z,40.60
2023-03-21T04:19:19.012Z,40.60
2023-03-21T04:21:47.683Z,40.80
2023-03-21T04:24:17.322Z,41.20
2023-03-21T04:26:46.138Z,40.80
2023-03-21T04:29:37.177Z,43.40
2023-03-21T04:32:27.651Z,40.70
2023-03-21T04:35:09.799Z,42.00
2023-03-21T04:37:39.320Z,41.50
2023-03-21T04:40:11.218Z,42.60
2023-03-21T04:42:39.485Z,42.00
2023-03-21T04:45:08.374Z,43.80
2023-03-21T04:47:36.900Z,44.60
2023-03-21T04:50:09.430Z,42.60
2023-03-21T04:52:38.491Z,41.60
2023-03-21T04:55:10.180Z,43.10
2023-03-21T04:57:39.851Z,43.00
2023-03-21T05:00:10.028Z,41.10
2023-03-21T05:02:42.440Z,41.20
2023-03-21T05:05:12.083Z,41.90
2023-03-21T05:07:41.819Z,42.40
2023-03-21T05:10:11.894Z,40.70
2023-03-21T05:12:42.690Z,41.80
2023-03-21T05:15:11.207Z,43.10
2023-03-21T05:17:44.394Z,42.20
2023-03-21T05:20:16.149Z,44.00
2023-03-21T05:22:46.291Z,44.50
2023-03-21T05:25:18.220Z,44.90
2023-03-21T05:28:31.484Z,46.00
2023-03-21T05:31:01.120Z,44.80
2023-03-21T05:33:30.038Z,44.60
2023-03-21T05:35:58.574Z,47.00
2023-03-21T05:38:31.541Z,47.30
2023-03-21T05:40:59.880Z,46.20
2023-03-21T05:43:28.225Z,45.70
2023-03-21T05:45:58.294Z,47.20
2023-03-21T05:48:36.893Z,48.80
2023-03-21T05:51:15.932Z,45.30
2023-03-21T05:53:44.027Z,45.30
2023-03-21T05:56:12.319Z,44.00
2023-03-21T05:58:46.788Z,44.10
2023-03-21T06:01:15.909Z,42.80
2023-03-21T06:03:48.364Z,44.50
2023-03-21T06:06:18.538Z,42.80
2023-03-21T06:08:53.379Z,43.50
2023-03-21T06:11:27.483Z,43.80
2023-03-21T06:14:16.340Z,43.30
2023-03-21T06:16:45.451Z,44.70
2023-03-21T06:19:14.804Z,42.50
2023-03-21T06:22:01.369Z,42.00
2023-03-21T06:24:29.631Z,42.10
2023-03-21T06:26:58.605Z,45.30
2023-03-21T06:29:28.523Z,44.60
2023-03-21T06:31:56.653Z,43.00
2023-03-21T06:34:24.568Z,46.60
2023-03-21T06:36:54.684Z,46.00
2023-03-21T06:39:23.285Z,41.70
2023-03-21T06:41:51.758Z,45.80
2023-03-21T06:44:22.127Z,46.90
2023-03-21T06:46:57.478Z,46.00
2023-03-21T06:49:27.040Z,43.70
2023-03-21T06:51:58.492Z,46.30
2023-03-21T06:54:26.879Z,46.20
2023-03-21T06:57:11.533Z,45.70
2023-03-21T06:59:42.012Z,47.90
2023-03-21T07:02:12.634Z,47.00
2023-03-21T07:04:46.108Z,48.20
2023-03-21T07:07:18.464Z,45.00
2023-03-21T07:09:47.696Z,45.40
2023-03-21T07:12:16.526Z,49.20
2023-03-21T07:15:20.043Z,46.10
2023-03-21T07:17:48.336Z,42.00
2023-03-21T07:20:17.073Z,47.10
2023-03-21T07:22:45.075Z,46.60
2023-03-21T07:25:20.585Z,47.50
2023-03-21T07:27:51.226Z,49.70
2023-03-21T07:30:19.376Z,50.80
2023-03-21T07:32:47.743Z,48.00
2023-03-21T07:35:17.365Z,46.70
2023-03-21T07:37:47.158Z,47.20
2023-03-21T07:40:18.010Z,43.70
2023-03-21T07:42:45.979Z,44.90
2023-03-21T07:45:21.983Z,48.50
2023-03-21T07:47:50.384Z,54.10
2023-03-21T07:50:19.456Z,65.10
2023-03-21T07:55:56.895Z,69.30
2023-03-21T07:58:26.802Z,61.70
2023-03-21T08:00:55.265Z,65.20
2023-03-21T08:03:23.522Z,60.00
2023-03-21T08:05:55.125Z,52.30
2023-03-21T08:08:23.938Z,51.50
2023-03-21T08:10:50.500Z,46.00
2023-03-21T08:13:22.385Z,46.80
2023-03-21T08:15:49.263Z,43.30
2023-03-21T08:18:16.317Z,40.60
2023-03-21T08:20:43.074Z,42.10
2023-03-21T08:23:09.731Z,45.80
2023-03-21T08:25:36.922Z,49.50
2023-03-21T08:28:04.681Z,48.30
2023-03-21T08:30:32.574Z,48.10
2023-03-21T08:33:01.182Z,47.90
2023-03-21T08:35:29.623Z,40.20
2023-03-21T08:37:56.992Z,42.90
2023-03-21T08:40:23.612Z,44.70
2023-03-21T08:42:52.280Z,45.60
2023-03-21T08:45:19.102Z,43.00
2023-03-21T08:47:47.653Z,46.50
2023-03-21T08:50:17.422Z,43.20
2023-03-21T08:52:44.221Z,43.00
2023-03-21T08:55:10.984Z,45.40
2023-03-21T08:57:38.097Z,42.20
2023-03-21T09:00:12.480Z,45.50
2023-03-21T09:02:40.972Z,39.40
2023-03-21T09:05:08.197Z,39.10
2023-03-21T09:07:35.852Z,43.00
2023-03-21T09:10:21.778Z,46.30
2023-03-21T09:12:55.203Z,45.50
2023-03-21T09:15:25.050Z,48.30
2023-03-21T09:17:53.482Z,42.90
2023-03-21T09:20:25.477Z,43.90
2023-03-21T09:22:52.676Z,42.30
2023-03-21T09:25:20.557Z,34.90
2023-03-21T09:27:49.322Z,35.50
2023-03-21T09:30:17.841Z,36.80
2023-03-21T09:32:47.836Z,37.70
2023-03-21T09:35:18.486Z,35.00
2023-03-21T09:37:49.193Z,33.50
2023-03-21T09:40:25.493Z,36.00
2023-03-21T09:43:06.920Z,33.60
2023-03-21T09:45:44.301Z,33.50
2023-03-21T09:48:19.254Z,33.60
2023-03-21T09:50:48.766Z,31.60
2023-03-21T09:53:23.961Z,32.00
2023-03-21T09:55:53.454Z,30.90
2023-03-21T09:58:25.759Z,31.80
2023-03-21T10:01:00.685Z,32.00
2023-03-21T10:03:34.460Z,29.60
2023-03-21T10:06:04.739Z,28.10
2023-03-21T10:08:35.860Z,27.90
2023-03-21T10:11:22.588Z,29.00
2023-03-21T10:13:55.790Z,28.60
2023-03-21T10:16:31.333Z,27.10
2023-03-21T10:19:04.775Z,27.30
2023-03-21T10:21:58.578Z,22.40
2023-03-21T10:24:21.906Z,25.40
2023-03-21T10:26:51.028Z,27.80
2023-03-21T10:29:18.009Z,26.80
2023-03-21T10:31:45.046Z,23.90
2023-03-21T10:34:16.200Z,20.70
2023-03-21T10:36:43.978Z,19.70
2023-03-21T10:39:21.173Z,21.30
2023-03-21T10:41:47.759Z,22.20
2023-03-21T10:44:16.731Z,25.80
2023-03-21T10:46:53.457Z,26.90
2023-03-21T10:49:20.988Z,27.40
2023-03-21T10:51:52.140Z,27.90
2023-03-21T10:54:20.860Z,27.40
2023-03-21T10:56:57.560Z,27.80
2023-03-21T10:59:24.747Z,27.70
2023-03-21T11:01:52.284Z,27.10
2023-03-21T11:04:21.865Z,28.30
2023-03-21T11:06:59.365Z,29.80
2023-03-21T11:09:41.932Z,28.70
2023-03-21T11:12:27.313Z,28.00
2023-03-21T11:14:54.634Z,30.30
2023-03-21T11:17:28.474Z,29.80
2023-03-21T11:20:08.464Z,29.60
2023-03-21T11:22:40.333Z,27.70
2023-03-21T11:25:11.467Z,26.00
2023-03-21T11:27:47.373Z,26.80
2023-03-21T11:30:21.051Z,25.20
2023-03-21T11:32:51.590Z,24.80
2023-03-21T11:35:20.746Z,23.20
2023-03-21T11:37:52.685Z,24.70
2023-03-21T11:40:25.630Z,25.20
2023-03-21T11:42:54.461Z,27.70
2023-03-21T11:45:25.219Z,25.90
2023-03-21T11:47:57.101Z,25.30
2023-03-21T11:50:23.780Z,24.80
2023-03-21T11:53:06.799Z,24.70
2023-03-21T11:56:06.396Z,24.00
2023-03-21T11:58:38.990Z,22.40
2023-03-21T12:01:43.173Z,23.40
2023-03-21T12:04:17.833Z,23.50
2023-03-21T12:06:47.221Z,23.50
2023-03-21T12:09:32.808Z,23.30
2023-03-21T12:12:06.944Z,23.00
2023-03-21T12:14:56.194Z,21.60
2023-03-21T12:17:35.454Z,22.00
2023-03-21T12:20:11.485Z,22.40
2023-03-21T12:22:59.089Z,23.40
2023-03-21T12:28:32.008Z,22.30
2023-03-21T12:31:25.001Z,23.20
2023-03-21T12:34:14.226Z,22.80
2023-03-21T12:37:02.919Z,23.70
2023-03-21T12:39:36.802Z,23.80
2023-03-21T12:42:03.525Z,23.60
2023-03-21T12:44:32.222Z,23.40
2023-03-21T12:47:22.632Z,23.20
2023-03-21T12:49:55.190Z,21.70
2023-03-21T12:52:25.380Z,19.90
2023-03-21T12:55:00.046Z,20.80
2023-03-21T12:57:47.703Z,19.90
2023-03-21T13:00:25.147Z,21.50
2023-03-21T13:03:12.312Z,22.40
2023-03-21T13:06:00.469Z,21.70
2023-03-21T13:08:39.021Z,21.40
2023-03-21T13:11:06.195Z,21.10
2023-03-21T13:13:46.761Z,22.60
2023-03-21T13:16:39.021Z,21.10
2023-03-21T13:19:20.330Z,21.90
2023-03-21T13:22:05.893Z,20.50
2023-03-21T13:24:48.326Z,23.10
2023-03-21T13:27:24.100Z,21.40
2023-03-21T13:29:52.480Z,21.90
2023-03-21T13:32:30.162Z,21.40
2023-03-21T13:35:16.340Z,22.30
2023-03-21T13:37:52.663Z,21.10
2023-03-21T13:40:39.501Z,21.40
2023-03-21T13:43:48.748Z,22.60
2023-03-21T13:46:24.780Z,22.00
2023-03-21T13:48:58.504Z,21.50
2023-03-21T13:51:29.139Z,21.30
2023-03-21T13:54:38.215Z,21.40
2023-03-21T13:57:05.546Z,24.00
2023-03-21T13:59:32.157Z,21.80
2023-03-21T14:02:28.381Z,20.10
2023-03-21T14:05:07.225Z,20.60
2023-03-21T14:07:42.423Z,20.00
2023-03-21T14:10:23.736Z,20.50
2023-03-21T14:12:51.410Z,20.50
2023-03-21T14:15:19.584Z,20.50
2023-03-21T14:17:58.202Z,20.50
2023-03-21T14:20:32.272Z,20.40
2023-03-21T14:23:00.252Z,20.40
2023-03-21T14:25:37.131Z,21.20
2023-03-21T14:28:25.273Z,21.10
2023-03-21T14:30:59.881Z,21.20
2023-03-21T14:33:43.257Z,23.00
2023-03-21T14:36:17.065Z,22.30
2023-03-21T14:38:43.752Z,23.70
2023-03-21T14:41:26.667Z,22.20
2023-03-21T14:44:25.188Z,22.80
2023-03-21T14:49:33.654Z,22.90
2023-03-21T14:52:02.065Z,25.10
2023-03-21T14:54:29.409Z,23.30
2023-03-21T14:57:02.863Z,25.90
2023-03-21T14:59:34.124Z,27.40
2023-03-21T15:02:04.456Z,27.00
2023-03-21T15:04:31.302Z,27.30
2023-03-21T15:07:04.343Z,26.80
2023-03-21T15:09:33.939Z,29.70
2023-03-21T15:12:08.483Z,29.40
2023-03-21T15:14:36.140Z,28.20
2023-03-21T15:17:07.072Z,28.40
2023-03-21T15:19:39.562Z,28.60
2023-03-21T15:22:18.216Z,28.10
2023-03-21T15:24:48.208Z,29.70
2023-03-21T15:27:17.010Z,26.70
2023-03-21T15:29:44.258Z,27.00
2023-03-21T15:32:16.784Z,27.20
2023-03-21T15:34:44.768Z,27.00
2023-03-21T15:37:33.423Z,26.50
2023-03-21T15:40:23.410Z,26.00
2023-03-21T15:42:50.797Z,26.40
2023-03-21T15:45:26.503Z,26.00
2023-03-21T15:48:07.316Z,25.60
2023-03-21T15:50:56.468Z,25.00
2023-03-21T15:53:23.573Z,25.30
2023-03-21T15:56:03.854Z,24.70
2023-03-21T15:58:42.297Z,20.40
2023-03-21T16:01:19.370Z,20.40
2023-03-21T16:04:02.431Z,19.10
2023-03-21T16:06:33.017Z,17.30
2023-03-21T16:09:09.730Z,18.10
2023-03-21T16:11:49.087Z,19.20
2023-03-21T16:14:17.054Z,20.90
2023-03-21T16:16:44.251Z,19.90
2023-03-21T16:19:12.360Z,21.20
2023-03-21T16:21:41.360Z,21.30
2023-03-21T16:24:11.093Z,22.80
2023-03-21T16:26:45.586Z,25.30
2023-03-21T16:29:13.426Z,23.20
2023-03-21T16:31:40.267Z,23.50
2023-03-21T16:34:07.443Z,23.80
2023-03-21T16:36:39.678Z,24.80
2023-03-21T16:39:16.330Z,23.90
2023-03-21T16:41:42.989Z,23.60
2023-03-21T16:44:09.712Z,20.90
2023-03-21T16:46:36.486Z,20.70
2023-03-21T16:49:03.508Z,19.20
2023-03-21T16:51:34.845Z,21.40
2023-03-21T16:54:01.914Z,20.00
2023-03-21T16:56:39.960Z,23.80
2023-03-21T16:59:07.750Z,23.20
2023-03-21T17:01:37.684Z,24.40
2023-03-21T17:04:04.400Z,24.60
2023-03-21T17:06:32.683Z,25.90
2023-03-21T17:08:59.939Z,15.50
2023-03-21T17:11:30.893Z,18.70
2023-03-21T17:13:57.530Z,16.40
2023-03-21T17:16:26.672Z,17.10
2023-03-21T17:18:54.504Z,22.60
2023-03-21T17:21:22.781Z,29.10
2023-03-21T17:23:49.679Z,24.50
2023-03-21T17:26:22.182Z,19.70
2023-03-21T17:28:48.955Z,17.10
2023-03-21T17:31:17.384Z,17.30
2023-03-21T17:33:44.257Z,17.90
2023-03-21T17:36:13.183Z,18.50
2023-03-21T17:38:40.022Z,19.70
2023-03-21T17:41:10.967Z,20.60
2023-03-21T17:43:37.559Z,22.20
2023-03-21T17:46:04.709Z,21.90
2023-03-21T17:48:31.571Z,22.70
2023-03-21T17:50:58.111Z,22.80
2023-03-21T17:53:26.051Z,24.40
2023-03-21T17:55:55.167Z,24.10
2023-03-21T17:58:22.706Z,24.30
2023-03-21T18:00:49.203Z,24.80
2023-03-21T18:03:17.826Z,25.20
2023-03-21T18:05:45.711Z,24.50
2023-03-21T18:08:13.545Z,24.60
2023-03-21T18:10:40.942Z,27.30
2023-03-21T18:13:07.861Z,25.80
2023-03-21T18:15:44.093Z,27.80
2023-03-21T18:18:13.435Z,30.00
2023-03-21T18:20:51.816Z,35.70
2023-03-21T18:23:19.191Z,34.00
2023-03-21T18:25:45.830Z,34.50
2023-03-21T18:28:21.100Z,34.10
2023-03-21T18:31:11.451Z,34.10
2023-03-21T18:33:37.355Z,35.80
2023-03-21T18:36:07.627Z,33.40
2023-03-21T18:38:36.471Z,29.90
2023-03-21T18:41:07.174Z,32.00
2023-03-21T18:46:23.074Z,40.20
2023-03-21T18:48:51.628Z,41.20
2023-03-21T18:51:18.966Z,42.90
2023-03-21T18:53:45.896Z,44.20
2023-03-21T18:56:46.868Z,42.30
2023-03-21T18:59:04.472Z,42.70
2023-03-21T19:01:32.055Z,42.00
2023-03-21T19:04:20.698Z,43.60
2023-03-21T19:06:46.237Z,38.60
2023-03-21T19:09:14.345Z,39.60
2023-03-21T19:11:42.016Z,39.10
2023-03-21T19:14:12.828Z,40.80
2023-03-21T19:17:14.838Z,38.50
2023-03-21T19:19:27.799Z,37.80
2023-03-21T19:21:55.001Z,36.70
2023-03-21T19:24:27.534Z,37.00
2023-03-21T19:26:59.163Z,32.30
2023-03-21T19:29:26.162Z,33.60
2023-03-21T19:31:52.757Z,32.50
2023-03-21T19:34:20.626Z,30.20
2023-03-21T19:36:51.654Z,32.70
2023-03-21T19:39:21.610Z,30.20
2023-03-21T19:41:48.560Z,32.20
2023-03-21T19:44:15.553Z,34.10
2023-03-21T19:46:42.459Z,36.20
2023-03-21T19:49:10.405Z,32.80
2023-03-21T19:51:37.691Z,32.00
2023-03-21T19:54:04.903Z,31.90
2023-03-21T19:56:31.997Z,31.40
2023-03-21T19:58:59.246Z,31.90
2023-03-21T20:01:27.240Z,30.60
2023-03-21T20:03:55.726Z,28.80
2023-03-21T20:06:23.378Z,29.80
2023-03-21T20:09:30.830Z,28.40
2023-03-21T20:23:25.695Z,21.50
2023-03-21T20:25:53.730Z,22.10
2023-03-21T20:28:27.066Z,21.20
2023-03-21T20:31:02.068Z,21.30
2023-03-21T20:33:30.723Z,23.80
2023-03-21T20:38:52.222Z,23.40
2023-03-21T20:41:20.901Z,21.60
2023-03-21T20:46:38.086Z,21.40
2023-03-21T20:49:09.905Z,24.50
2023-03-21T20:52:40.846Z,21.50
2023-03-21T20:54:26.776Z,21.50
2023-03-21T20:56:56.822Z,23.40
2023-03-21T20:59:27.660Z,22.00
2023-03-21T21:01:59.058Z,21.40
2023-03-21T21:04:52.854Z,19.50
2023-03-21T21:07:21.229Z,23.20
2023-03-21T21:09:54.643Z,21.40
2023-03-21T21:12:27.533Z,24.00
2023-03-21T21:14:56.706Z,21.80
2023-03-21T21:17:54.542Z,21.80
2023-03-21T21:20:20.883Z,21.00
2023-03-21T21:22:59.597Z,23.20
2023-03-21T21:25:32.063Z,23.40
2023-03-21T21:28:01.838Z,21.10
2023-03-21T21:30:38.372Z,25.00
2023-03-21T21:33:07.091Z,24.20
2023-03-21T21:35:35.980Z,27.20
2023-03-21T21:38:04.548Z,30.70
2023-03-21T21:40:33.014Z,31.90
2023-03-21T21:43:03.748Z,35.00
2023-03-21T21:45:32.488Z,34.50
2023-03-21T21:48:00.823Z,32.90
2023-03-21T21:50:30.656Z,31.50
2023-03-21T21:53:03.914Z,29.10
2023-03-21T21:55:34.287Z,30.80
2023-03-21T21:58:03.975Z,31.60
2023-03-21T22:00:32.288Z,29.00
2023-03-21T22:03:00.720Z,32.10
2023-03-21T22:05:29.345Z,31.00
2023-03-21T22:08:03.534Z,31.00
2023-03-21T22:10:33.000Z,28.70
2023-03-21T22:13:00.907Z,30.00
2023-03-21T22:15:29.188Z,31.50
2023-03-21T22:17:58.978Z,30.50
2023-03-21T22:20:26.892Z,29.80
2023-03-21T22:23:01.058Z,29.00
2023-03-21T22:25:33.123Z,27.00
2023-03-21T22:28:01.135Z,28.10
2023-03-21T22:30:29.410Z,27.40
2023-03-21T22:33:08.922Z,25.70
2023-03-21T22:35:42.544Z,25.10
2023-03-21T22:38:12.919Z,24.20
2023-03-21T22:40:41.326Z,25.30
2023-03-21T22:43:13.590Z,28.80
2023-03-21T22:45:41.702Z,27.30
2023-03-21T22:48:13.573Z,28.70
2023-03-21T22:50:42.313Z,26.40
2023-03-21T22:53:10.529Z,27.20
2023-03-21T22:55:38.934Z,27.20
2023-03-21T22:58:07.515Z,27.60
2023-03-21T23:00:35.502Z,29.20
2023-03-21T23:03:04.771Z,28.90
2023-03-21T23:05:33.851Z,25.80
2023-03-21T23:08:07.994Z,28.10
2023-03-21T23:10:40.921Z,27.70
2023-03-21T23:13:09.332Z,26.20
2023-03-21T23:15:40.832Z,25.60
2023-03-21T23:18:09.872Z,20.90
2023-03-21T23:20:38.300Z,25.20
2023-03-21T23:23:06.467Z,22.60
2023-03-21T23:25:39.542Z,20.30
2023-03-21T23:28:08.931Z,19.70
2023-03-21T23:30:38.282Z,23.10
2023-03-21T23:33:06.623Z,22.50
2023-03-21T23:35:39.510Z,22.50
2023-03-21T23:38:08.057Z,21.00
2023-03-21T23:40:38.987Z,22.80
2023-03-21T23:43:07.250Z,24.00
2023-03-21T23:45:35.408Z,23.10
2023-03-21T23:48:05.142Z,24.60
2023-03-21T23:50:34.130Z,24.30
2023-03-21T23:53:05.621Z,21.80
2023-03-21T23:55:37.964Z,20.60
2023-03-21T23:58:09.294Z,22.50
